sensor_id;sensor_type;location;lat;lon;timestamp;temperature;humidity
20341;DHT22;10328;50.042;8.238;2022-07-10T00:02:17;16.20;99.90
20341;DHT22;10328;50.042;8.238;2022-07-10T00:04:43;16.30;99.90
20341;DHT22;10328;50.042;8.238;2022-07-10T00:07:10;16.30;99.90
20341;DHT22;10328;50.042;8.238;2022-07-10T00:09:37;16.30;99.90
20341;DHT22;10328;50.042;8.238;2022-07-10T00:12:03;16.30;99.90
20341;DHT22;10328;50.042;8.238;2022-07-10T00:14:31;16.30;99.90
20341;DHT22;10328;50.042;8.238;2022-07-10T00:16:58;16.30;99.90
20341;DHT22;10328;50.042;8.238;2022-07-10T00:19:25;16.20;99.90
20341;DHT22;10328;50.042;8.238;2022-07-10T00:21:51;16.10;99.90
20341;DHT22;10328;50.042;8.238;2022-07-10T00:24:18;16.00;99.90
20341;DHT22;10328;50.042;8.238;2022-07-10T00:26:45;15.90;99.90
20341;DHT22;10328;50.042;8.238;2022-07-10T00:29:13;15.90;99.90
20341;DHT22;10328;50.042;8.238;2022-07-10T00:31:40;15.90;99.90
20341;DHT22;10328;50.042;8.238;2022-07-10T00:34:06;15.80;99.90
20341;DHT22;10328;50.042;8.238;2022-07-10T00:36:33;15.80;99.90
20341;DHT22;10328;50.042;8.238;2022-07-10T00:39:00;15.70;99.90
20341;DHT22;10328;50.042;8.238;2022-07-10T00:41:26;15.70;99.90
20341;DHT22;10328;50.042;8.238;2022-07-10T00:44:00;15.60;99.90
20341;DHT22;10328;50.042;8.238;2022-07-10T00:46:28;15.60;99.90
20341;DHT22;10328;50.042;8.238;2022-07-10T00:48:56;15.50;99.90
20341;DHT22;10328;50.042;8.238;2022-07-10T00:51:28;15.50;99.90
20341;DHT22;10328;50.042;8.238;2022-07-10T00:53:56;15.50;99.90
20341;DHT22;10328;50.042;8.238;2022-07-10T00:56:24;15.40;99.90
20341;DHT22;10328;50.042;8.238;2022-07-10T00:58:51;15.40;99.90
20341;DHT22;10328;50.042;8.238;2022-07-10T01:01:18;15.40;99.90
20341;DHT22;10328;50.042;8.238;2022-07-10T01:03:46;15.30;99.90
20341;DHT22;10328;50.042;8.238;2022-07-10T01:06:14;15.30;99.90
20341;DHT22;10328;50.042;8.238;2022-07-10T01:08:41;15.30;99.90
20341;DHT22;10328;50.042;8.238;2022-07-10T01:11:09;15.20;99.90
20341;DHT22;10328;50.042;8.238;2022-07-10T01:13:37;15.20;99.90
20341;DHT22;10328;50.042;8.238;2022-07-10T01:16:04;15.10;99.90
20341;DHT22;10328;50.042;8.238;2022-07-10T01:18:30;15.00;99.90
20341;DHT22;10328;50.042;8.238;2022-07-10T01:20:57;15.00;99.90
20341;DHT22;10328;50.042;8.238;2022-07-10T01:23:24;15.10;99.90
20341;DHT22;10328;50.042;8.238;2022-07-10T01:25:51;15.20;99.90
20341;DHT22;10328;50.042;8.238;2022-07-10T01:28:18;15.20;99.90
20341;DHT22;10328;50.042;8.238;2022-07-10T01:30:46;15.30;99.90
20341;DHT22;10328;50.042;8.238;2022-07-10T01:33:13;15.30;99.90
20341;DHT22;10328;50.042;8.238;2022-07-10T01:35:40;15.40;99.90
20341;DHT22;10328;50.042;8.238;2022-07-10T01:38:07;15.50;99.90
20341;DHT22;10328;50.042;8.238;2022-07-10T01:40:33;15.50;99.90
20341;DHT22;10328;50.042;8.238;2022-07-10T01:43:00;15.50;99.90
20341;DHT22;10328;50.042;8.238;2022-07-10T01:45:26;15.50;99.90
20341;DHT22;10328;50.042;8.238;2022-07-10T01:47:53;15.40;99.90
20341;DHT22;10328;50.042;8.238;2022-07-10T01:50:20;15.40;99.90
20341;DHT22;10328;50.042;8.238;2022-07-10T01:52:47;15.40;99.90
20341;DHT22;10328;50.042;8.238;2022-07-10T01:55:13;15.40;99.90
20341;DHT22;10328;50.042;8.238;2022-07-10T01:57:40;15.40;99.90
20341;DHT22;10328;50.042;8.238;2022-07-10T02:00:07;15.30;99.90
20341;DHT22;10328;50.042;8.238;2022-07-10T02:02:34;15.40;99.90
20341;DHT22;10328;50.042;8.238;2022-07-10T02:05:01;15.40;99.90
20341;DHT22;10328;50.042;8.238;2022-07-10T02:07:28;15.30;99.90
20341;DHT22;10328;50.042;8.238;2022-07-10T02:09:54;15.20;99.90
20341;DHT22;10328;50.042;8.238;2022-07-10T02:12:21;15.00;99.90
20341;DHT22;10328;50.042;8.238;2022-07-10T02:14:47;15.10;99.90
20341;DHT22;10328;50.042;8.238;2022-07-10T02:17:14;15.00;99.90
20341;DHT22;10328;50.042;8.238;2022-07-10T02:19:42;14.90;99.90
20341;DHT22;10328;50.042;8.238;2022-07-10T02:22:09;14.90;99.90
20341;DHT22;10328;50.042;8.238;2022-07-10T02:24:35;14.90;99.90
20341;DHT22;10328;50.042;8.238;2022-07-10T02:27:02;14.80;99.90
20341;DHT22;10328;50.042;8.238;2022-07-10T02:29:29;14.80;99.90
20341;DHT22;10328;50.042;8.238;2022-07-10T02:31:56;14.80;99.90
20341;DHT22;10328;50.042;8.238;2022-07-10T02:34:23;14.80;99.90
20341;DHT22;10328;50.042;8.238;2022-07-10T02:36:49;14.90;99.90
20341;DHT22;10328;50.042;8.238;2022-07-10T02:39:17;14.90;99.90
20341;DHT22;10328;50.042;8.238;2022-07-10T02:41:45;14.90;99.90
20341;DHT22;10328;50.042;8.238;2022-07-10T02:44:12;14.90;99.90
20341;DHT22;10328;50.042;8.238;2022-07-10T02:46:38;14.90;99.90
20341;DHT22;10328;50.042;8.238;2022-07-10T02:49:05;14.90;99.90
20341;DHT22;10328;50.042;8.238;2022-07-10T02:51:32;14.90;99.90
20341;DHT22;10328;50.042;8.238;2022-07-10T02:53:59;14.90;99.90
20341;DHT22;10328;50.042;8.238;2022-07-10T02:56:25;14.90;99.90
20341;DHT22;10328;50.042;8.238;2022-07-10T02:58:52;14.90;99.90
20341;DHT22;10328;50.042;8.238;2022-07-10T03:01:19;14.80;99.90
20341;DHT22;10328;50.042;8.238;2022-07-10T03:03:46;14.70;99.90
20341;DHT22;10328;50.042;8.238;2022-07-10T03:06:12;14.60;99.90
20341;DHT22;10328;50.042;8.238;2022-07-10T03:08:39;14.60;99.90
20341;DHT22;10328;50.042;8.238;2022-07-10T03:11:07;14.50;99.90
20341;DHT22;10328;50.042;8.238;2022-07-10T03:13:33;14.40;99.90
20341;DHT22;10328;50.042;8.238;2022-07-10T03:16:00;14.40;99.90
20341;DHT22;10328;50.042;8.238;2022-07-10T03:18:27;14.40;99.90
20341;DHT22;10328;50.042;8.238;2022-07-10T03:20:53;14.20;99.90
20341;DHT22;10328;50.042;8.238;2022-07-10T03:23:21;14.20;99.90
20341;DHT22;10328;50.042;8.238;2022-07-10T03:25:48;14.10;99.90
20341;DHT22;10328;50.042;8.238;2022-07-10T03:28:14;14.10;99.90
20341;DHT22;10328;50.042;8.238;2022-07-10T03:30:41;14.10;99.90
20341;DHT22;10328;50.042;8.238;2022-07-10T03:33:07;14.10;99.90
20341;DHT22;10328;50.042;8.238;2022-07-10T03:35:34;14.10;99.90
20341;DHT22;10328;50.042;8.238;2022-07-10T03:38:01;13.90;99.90
20341;DHT22;10328;50.042;8.238;2022-07-10T03:40:28;14.00;99.90
20341;DHT22;10328;50.042;8.238;2022-07-10T03:42:55;14.00;99.90
20341;DHT22;10328;50.042;8.238;2022-07-10T03:45:22;14.00;99.90
20341;DHT22;10328;50.042;8.238;2022-07-10T03:47:48;13.90;99.90
20341;DHT22;10328;50.042;8.238;2022-07-10T03:50:15;13.80;99.90
20341;DHT22;10328;50.042;8.238;2022-07-10T03:52:42;13.60;99.90
20341;DHT22;10328;50.042;8.238;2022-07-10T03:55:10;13.60;99.90
20341;DHT22;10328;50.042;8.238;2022-07-10T03:57:37;13.60;99.90
20341;DHT22;10328;50.042;8.238;2022-07-10T04:00:24;13.50;99.90
20341;DHT22;10328;50.042;8.238;2022-07-10T04:02:58;13.60;99.90
20341;DHT22;10328;50.042;8.238;2022-07-10T04:05:26;13.50;99.90
20341;DHT22;10328;50.042;8.238;2022-07-10T04:07:54;13.60;99.90
20341;DHT22;10328;50.042;8.238;2022-07-10T04:10:21;13.70;99.90
20341;DHT22;10328;50.042;8.238;2022-07-10T04:12:48;13.70;99.90
20341;DHT22;10328;50.042;8.238;2022-07-10T04:15:15;13.70;99.90
20341;DHT22;10328;50.042;8.238;2022-07-10T04:17:42;13.80;99.90
20341;DHT22;10328;50.042;8.238;2022-07-10T04:20:10;13.80;99.90
20341;DHT22;10328;50.042;8.238;2022-07-10T04:22:36;13.70;99.90
20341;DHT22;10328;50.042;8.238;2022-07-10T04:25:04;13.80;99.90
20341;DHT22;10328;50.042;8.238;2022-07-10T04:27:32;13.80;99.90
20341;DHT22;10328;50.042;8.238;2022-07-10T04:29:59;13.90;99.90
20341;DHT22;10328;50.042;8.238;2022-07-10T04:32:25;13.90;99.90
20341;DHT22;10328;50.042;8.238;2022-07-10T04:34:55;13.90;99.90
20341;DHT22;10328;50.042;8.238;2022-07-10T04:37:21;14.00;99.90
20341;DHT22;10328;50.042;8.238;2022-07-10T04:39:48;14.10;99.90
20341;DHT22;10328;50.042;8.238;2022-07-10T04:42:15;14.20;99.90
20341;DHT22;10328;50.042;8.238;2022-07-10T04:44:42;14.40;99.90
20341;DHT22;10328;50.042;8.238;2022-07-10T04:47:09;14.40;99.90
20341;DHT22;10328;50.042;8.238;2022-07-10T04:49:36;14.40;99.90
20341;DHT22;10328;50.042;8.238;2022-07-10T04:52:03;14.40;99.90
20341;DHT22;10328;50.042;8.238;2022-07-10T04:54:30;14.50;99.90
20341;DHT22;10328;50.042;8.238;2022-07-10T04:56:56;14.50;99.90
20341;DHT22;10328;50.042;8.238;2022-07-10T04:59:23;14.70;99.90
20341;DHT22;10328;50.042;8.238;2022-07-10T05:01:50;14.80;99.90
20341;DHT22;10328;50.042;8.238;2022-07-10T05:04:16;14.90;99.90
20341;DHT22;10328;50.042;8.238;2022-07-10T05:06:43;15.10;99.90
20341;DHT22;10328;50.042;8.238;2022-07-10T05:09:10;15.30;99.90
20341;DHT22;10328;50.042;8.238;2022-07-10T05:11:36;15.30;99.90
20341;DHT22;10328;50.042;8.238;2022-07-10T05:14:03;15.20;99.90
20341;DHT22;10328;50.042;8.238;2022-07-10T05:16:29;15.40;99.90
20341;DHT22;10328;50.042;8.238;2022-07-10T05:18:56;15.50;99.90
20341;DHT22;10328;50.042;8.238;2022-07-10T05:21:23;15.60;99.90
20341;DHT22;10328;50.042;8.238;2022-07-10T05:23:51;15.70;99.90
20341;DHT22;10328;50.042;8.238;2022-07-10T05:26:18;15.60;99.90
20341;DHT22;10328;50.042;8.238;2022-07-10T05:28:45;15.60;99.90
20341;DHT22;10328;50.042;8.238;2022-07-10T05:31:12;15.70;99.90
20341;DHT22;10328;50.042;8.238;2022-07-10T05:33:38;15.80;99.90
20341;DHT22;10328;50.042;8.238;2022-07-10T05:36:08;15.90;99.90
20341;DHT22;10328;50.042;8.238;2022-07-10T05:38:34;16.10;99.90
20341;DHT22;10328;50.042;8.238;2022-07-10T05:41:01;16.20;99.90
20341;DHT22;10328;50.042;8.238;2022-07-10T05:43:28;16.10;99.90
20341;DHT22;10328;50.042;8.238;2022-07-10T05:45:55;16.00;99.90
20341;DHT22;10328;50.042;8.238;2022-07-10T05:48:24;15.60;99.90
20341;DHT22;10328;50.042;8.238;2022-07-10T05:50:52;15.60;99.90
20341;DHT22;10328;50.042;8.238;2022-07-10T05:53:18;15.60;99.90
20341;DHT22;10328;50.042;8.238;2022-07-10T05:55:49;15.60;99.90
20341;DHT22;10328;50.042;8.238;2022-07-10T05:58:16;15.60;99.90
20341;DHT22;10328;50.042;8.238;2022-07-10T06:00:43;15.70;99.90
20341;DHT22;10328;50.042;8.238;2022-07-10T06:03:10;15.80;99.90
20341;DHT22;10328;50.042;8.238;2022-07-10T06:05:37;15.70;99.90
20341;DHT22;10328;50.042;8.238;2022-07-10T06:08:04;15.70;99.90
20341;DHT22;10328;50.042;8.238;2022-07-10T06:10:31;15.60;99.90
20341;DHT22;10328;50.042;8.238;2022-07-10T06:12:57;15.50;99.90
20341;DHT22;10328;50.042;8.238;2022-07-10T06:15:24;15.60;99.90
20341;DHT22;10328;50.042;8.238;2022-07-10T06:17:51;15.60;99.90
20341;DHT22;10328;50.042;8.238;2022-07-10T06:20:17;15.60;99.90
20341;DHT22;10328;50.042;8.238;2022-07-10T06:22:44;15.60;99.90
20341;DHT22;10328;50.042;8.238;2022-07-10T06:25:11;15.90;99.90
20341;DHT22;10328;50.042;8.238;2022-07-10T06:27:38;16.10;99.90
20341;DHT22;10328;50.042;8.238;2022-07-10T06:30:05;16.40;99.90
20341;DHT22;10328;50.042;8.238;2022-07-10T06:32:32;16.50;99.90
20341;DHT22;10328;50.042;8.238;2022-07-10T06:34:59;16.50;99.90
20341;DHT22;10328;50.042;8.238;2022-07-10T06:37:25;16.40;99.90
20341;DHT22;10328;50.042;8.238;2022-07-10T06:39:52;16.40;99.90
20341;DHT22;10328;50.042;8.238;2022-07-10T06:42:19;16.40;99.90
20341;DHT22;10328;50.042;8.238;2022-07-10T06:44:45;16.20;99.90
20341;DHT22;10328;50.042;8.238;2022-07-10T06:47:14;16.20;99.90
20341;DHT22;10328;50.042;8.238;2022-07-10T06:50:01;16.10;99.90
20341;DHT22;10328;50.042;8.238;2022-07-10T06:52:28;16.20;99.90
20341;DHT22;10328;50.042;8.238;2022-07-10T06:54:54;16.20;99.90
20341;DHT22;10328;50.042;8.238;2022-07-10T06:57:21;16.40;99.90
20341;DHT22;10328;50.042;8.238;2022-07-10T06:59:48;16.50;99.90
20341;DHT22;10328;50.042;8.238;2022-07-10T07:02:14;16.50;99.90
20341;DHT22;10328;50.042;8.238;2022-07-10T07:04:41;16.60;99.90
20341;DHT22;10328;50.042;8.238;2022-07-10T07:07:08;16.80;99.90
20341;DHT22;10328;50.042;8.238;2022-07-10T07:09:35;16.80;99.90
20341;DHT22;10328;50.042;8.238;2022-07-10T07:12:02;16.80;99.90
20341;DHT22;10328;50.042;8.238;2022-07-10T07:14:30;17.00;99.90
20341;DHT22;10328;50.042;8.238;2022-07-10T07:17:01;17.10;99.90
20341;DHT22;10328;50.042;8.238;2022-07-10T07:19:33;17.20;99.90
20341;DHT22;10328;50.042;8.238;2022-07-10T07:22:22;17.50;99.90
20341;DHT22;10328;50.042;8.238;2022-07-10T07:25:18;17.80;99.90
20341;DHT22;10328;50.042;8.238;2022-07-10T07:27:45;17.80;99.90
20341;DHT22;10328;50.042;8.238;2022-07-10T07:30:14;18.10;99.90
20341;DHT22;10328;50.042;8.238;2022-07-10T07:32:42;18.30;99.90
20341;DHT22;10328;50.042;8.238;2022-07-10T07:35:09;17.90;99.90
20341;DHT22;10328;50.042;8.238;2022-07-10T07:37:44;17.80;99.90
20341;DHT22;10328;50.042;8.238;2022-07-10T07:40:13;17.80;99.90
20341;DHT22;10328;50.042;8.238;2022-07-10T07:42:40;17.80;99.90
20341;DHT22;10328;50.042;8.238;2022-07-10T07:45:08;18.20;99.90
20341;DHT22;10328;50.042;8.238;2022-07-10T07:50:19;18.90;99.90
20341;DHT22;10328;50.042;8.238;2022-07-10T07:52:47;19.00;99.90
20341;DHT22;10328;50.042;8.238;2022-07-10T07:55:16;18.80;99.90
20341;DHT22;10328;50.042;8.238;2022-07-10T07:57:44;18.90;99.90
20341;DHT22;10328;50.042;8.238;2022-07-10T08:00:12;19.10;99.90
20341;DHT22;10328;50.042;8.238;2022-07-10T08:02:39;19.20;99.90
20341;DHT22;10328;50.042;8.238;2022-07-10T08:05:07;19.10;99.90
20341;DHT22;10328;50.042;8.238;2022-07-10T08:07:40;18.80;99.90
20341;DHT22;10328;50.042;8.238;2022-07-10T08:10:09;18.70;99.90
20341;DHT22;10328;50.042;8.238;2022-07-10T08:12:36;18.60;99.90
20341;DHT22;10328;50.042;8.238;2022-07-10T08:15:03;18.80;99.90
20341;DHT22;10328;50.042;8.238;2022-07-10T08:17:30;18.80;99.90
20341;DHT22;10328;50.042;8.238;2022-07-10T08:19:57;18.80;99.90
20341;DHT22;10328;50.042;8.238;2022-07-10T08:22:23;18.80;99.90
20341;DHT22;10328;50.042;8.238;2022-07-10T08:24:50;19.00;99.90
20341;DHT22;10328;50.042;8.238;2022-07-10T08:27:17;18.80;99.90
20341;DHT22;10328;50.042;8.238;2022-07-10T08:29:43;19.10;99.90
20341;DHT22;10328;50.042;8.238;2022-07-10T08:32:10;19.00;99.90
20341;DHT22;10328;50.042;8.238;2022-07-10T08:34:37;19.10;99.90
20341;DHT22;10328;50.042;8.238;2022-07-10T08:37:04;19.50;99.90
20341;DHT22;10328;50.042;8.238;2022-07-10T08:39:31;19.40;99.90
20341;DHT22;10328;50.042;8.238;2022-07-10T08:41:59;19.30;99.90
20341;DHT22;10328;50.042;8.238;2022-07-10T08:44:26;19.60;99.90
20341;DHT22;10328;50.042;8.238;2022-07-10T08:46:53;19.70;99.90
20341;DHT22;10328;50.042;8.238;2022-07-10T08:49:20;19.70;99.90
20341;DHT22;10328;50.042;8.238;2022-07-10T08:54:28;19.80;99.90
20341;DHT22;10328;50.042;8.238;2022-07-10T08:56:56;19.50;99.90
20341;DHT22;10328;50.042;8.238;2022-07-10T08:59:24;19.10;99.90
20341;DHT22;10328;50.042;8.238;2022-07-10T09:01:57;18.70;99.90
20341;DHT22;10328;50.042;8.238;2022-07-10T09:04:25;18.50;99.90
20341;DHT22;10328;50.042;8.238;2022-07-10T09:06:54;18.70;99.90
20341;DHT22;10328;50.042;8.238;2022-07-10T09:09:21;18.80;99.90
20341;DHT22;10328;50.042;8.238;2022-07-10T09:11:48;18.90;99.90
20341;DHT22;10328;50.042;8.238;2022-07-10T09:14:16;19.30;99.90
20341;DHT22;10328;50.042;8.238;2022-07-10T09:16:59;19.80;99.90
20341;DHT22;10328;50.042;8.238;2022-07-10T09:19:27;20.20;99.90
20341;DHT22;10328;50.042;8.238;2022-07-10T09:24:39;20.10;99.90
20341;DHT22;10328;50.042;8.238;2022-07-10T09:27:06;19.80;99.90
20341;DHT22;10328;50.042;8.238;2022-07-10T09:29:45;19.80;99.90
20341;DHT22;10328;50.042;8.238;2022-07-10T09:32:12;19.90;99.90
20341;DHT22;10328;50.042;8.238;2022-07-10T09:34:48;20.10;99.90
20341;DHT22;10328;50.042;8.238;2022-07-10T09:37:30;19.90;99.90
20341;DHT22;10328;50.042;8.238;2022-07-10T09:40:02;19.90;99.90
20341;DHT22;10328;50.042;8.238;2022-07-10T09:42:35;19.80;99.90
20341;DHT22;10328;50.042;8.238;2022-07-10T09:47:59;19.70;99.90
20341;DHT22;10328;50.042;8.238;2022-07-10T09:50:34;20.00;99.90
20341;DHT22;10328;50.042;8.238;2022-07-10T09:53:03;19.90;99.90
20341;DHT22;10328;50.042;8.238;2022-07-10T09:55:34;19.40;99.90
20341;DHT22;10328;50.042;8.238;2022-07-10T09:58:03;19.20;99.90
20341;DHT22;10328;50.042;8.238;2022-07-10T10:03:03;19.80;99.90
20341;DHT22;10328;50.042;8.238;2022-07-10T10:05:54;19.90;99.90
20341;DHT22;10328;50.042;8.238;2022-07-10T10:08:56;20.50;99.90
20341;DHT22;10328;50.042;8.238;2022-07-10T10:11:26;20.60;99.90
20341;DHT22;10328;50.042;8.238;2022-07-10T10:13:53;20.90;99.90
20341;DHT22;10328;50.042;8.238;2022-07-10T10:16:20;20.90;99.90
20341;DHT22;10328;50.042;8.238;2022-07-10T10:18:50;21.00;99.90
20341;DHT22;10328;50.042;8.238;2022-07-10T10:21:36;20.70;99.90
20341;DHT22;10328;50.042;8.238;2022-07-10T10:24:03;20.10;99.90
20341;DHT22;10328;50.042;8.238;2022-07-10T10:26:29;20.00;99.90
20341;DHT22;10328;50.042;8.238;2022-07-10T10:28:58;20.20;99.90
20341;DHT22;10328;50.042;8.238;2022-07-10T10:31:27;20.40;99.90
20341;DHT22;10328;50.042;8.238;2022-07-10T10:33:55;20.20;99.90
20341;DHT22;10328;50.042;8.238;2022-07-10T10:36:43;20.50;99.90
20341;DHT22;10328;50.042;8.238;2022-07-10T10:39:12;20.60;99.90
20341;DHT22;10328;50.042;8.238;2022-07-10T10:41:52;20.90;99.90
20341;DHT22;10328;50.042;8.238;2022-07-10T10:44:21;20.60;99.90
20341;DHT22;10328;50.042;8.238;2022-07-10T10:49:24;20.60;99.90
20341;DHT22;10328;50.042;8.238;2022-07-10T10:51:58;20.80;99.90
20341;DHT22;10328;50.042;8.238;2022-07-10T10:54:58;20.70;99.90
20341;DHT22;10328;50.042;8.238;2022-07-10T10:57:18;20.80;99.90
20341;DHT22;10328;50.042;8.238;2022-07-10T10:59:53;21.00;99.90
20341;DHT22;10328;50.042;8.238;2022-07-10T11:08:02;21.60;99.90
20341;DHT22;10328;50.042;8.238;2022-07-10T11:10:30;21.90;99.90
20341;DHT22;10328;50.042;8.238;2022-07-10T11:13:05;22.20;99.90
20341;DHT22;10328;50.042;8.238;2022-07-10T11:15:37;22.10;99.90
20341;DHT22;10328;50.042;8.238;2022-07-10T11:18:11;21.80;99.90
20341;DHT22;10328;50.042;8.238;2022-07-10T11:20:40;22.10;99.90
20341;DHT22;10328;50.042;8.238;2022-07-10T11:31:10;22.30;99.90
20341;DHT22;10328;50.042;8.238;2022-07-10T11:33:41;22.20;99.90
20341;DHT22;10328;50.042;8.238;2022-07-10T11:36:17;22.20;99.90
20341;DHT22;10328;50.042;8.238;2022-07-10T11:38:45;22.10;99.90
20341;DHT22;10328;50.042;8.238;2022-07-10T11:41:16;22.20;99.90
20341;DHT22;10328;50.042;8.238;2022-07-10T11:43:50;22.20;99.90
20341;DHT22;10328;50.042;8.238;2022-07-10T11:46:22;22.40;99.90
20341;DHT22;10328;50.042;8.238;2022-07-10T11:48:50;22.60;99.90
20341;DHT22;10328;50.042;8.238;2022-07-10T11:54:00;22.10;99.90
20341;DHT22;10328;50.042;8.238;2022-07-10T11:56:29;22.20;99.90
20341;DHT22;10328;50.042;8.238;2022-07-10T11:59:04;22.50;99.90
20341;DHT22;10328;50.042;8.238;2022-07-10T12:04:07;22.40;99.90
20341;DHT22;10328;50.042;8.238;2022-07-10T12:06:37;22.40;99.90
20341;DHT22;10328;50.042;8.238;2022-07-10T12:09:06;22.40;99.90
20341;DHT22;10328;50.042;8.238;2022-07-10T12:11:34;22.60;99.90
20341;DHT22;10328;50.042;8.238;2022-07-10T12:14:18;22.90;99.90
20341;DHT22;10328;50.042;8.238;2022-07-10T12:16:46;23.20;99.90
20341;DHT22;10328;50.042;8.238;2022-07-10T12:19:16;22.50;99.90
20341;DHT22;10328;50.042;8.238;2022-07-10T12:21:45;22.30;99.90
20341;DHT22;10328;50.042;8.238;2022-07-10T12:24:13;22.00;99.90
20341;DHT22;10328;50.042;8.238;2022-07-10T12:26:43;21.80;99.90
20341;DHT22;10328;50.042;8.238;2022-07-10T12:29:22;21.90;99.90
20341;DHT22;10328;50.042;8.238;2022-07-10T12:31:52;22.00;99.90
20341;DHT22;10328;50.042;8.238;2022-07-10T12:34:19;21.60;99.90
20341;DHT22;10328;50.042;8.238;2022-07-10T12:36:50;21.60;99.90
20341;DHT22;10328;50.042;8.238;2022-07-10T12:39:20;21.70;99.90
20341;DHT22;10328;50.042;8.238;2022-07-10T12:42:01;22.00;99.90
20341;DHT22;10328;50.042;8.238;2022-07-10T12:44:43;22.40;99.90
20341;DHT22;10328;50.042;8.238;2022-07-10T12:47:14;22.10;99.90
20341;DHT22;10328;50.042;8.238;2022-07-10T12:50:04;21.60;99.90
20341;DHT22;10328;50.042;8.238;2022-07-10T12:52:33;21.60;99.90
20341;DHT22;10328;50.042;8.238;2022-07-10T12:55:21;21.80;99.90
20341;DHT22;10328;50.042;8.238;2022-07-10T12:57:53;21.70;99.90
20341;DHT22;10328;50.042;8.238;2022-07-10T13:00:34;21.70;99.90
20341;DHT22;10328;50.042;8.238;2022-07-10T13:03:05;21.60;99.90
20341;DHT22;10328;50.042;8.238;2022-07-10T13:05:34;21.70;99.90
20341;DHT22;10328;50.042;8.238;2022-07-10T13:10:52;21.60;99.90
20341;DHT22;10328;50.042;8.238;2022-07-10T13:13:19;21.80;99.90
20341;DHT22;10328;50.042;8.238;2022-07-10T13:15:46;22.30;99.90
20341;DHT22;10328;50.042;8.238;2022-07-10T13:18:17;22.70;99.90
20341;DHT22;10328;50.042;8.238;2022-07-10T13:20:45;22.60;99.90
20341;DHT22;10328;50.042;8.238;2022-07-10T13:23:12;22.50;99.90
20341;DHT22;10328;50.042;8.238;2022-07-10T13:25:39;21.90;99.90
20341;DHT22;10328;50.042;8.238;2022-07-10T13:28:07;22.10;99.90
20341;DHT22;10328;50.042;8.238;2022-07-10T13:30:34;22.30;99.90
20341;DHT22;10328;50.042;8.238;2022-07-10T13:33:01;22.10;99.90
20341;DHT22;10328;50.042;8.238;2022-07-10T13:35:29;22.10;99.90
20341;DHT22;10328;50.042;8.238;2022-07-10T13:37:57;22.30;99.90
20341;DHT22;10328;50.042;8.238;2022-07-10T13:40:28;22.40;99.90
20341;DHT22;10328;50.042;8.238;2022-07-10T13:42:55;21.90;99.90
20341;DHT22;10328;50.042;8.238;2022-07-10T13:45:23;21.80;99.90
20341;DHT22;10328;50.042;8.238;2022-07-10T13:47:52;22.10;99.90
20341;DHT22;10328;50.042;8.238;2022-07-10T13:50:22;22.40;99.90
20341;DHT22;10328;50.042;8.238;2022-07-10T13:52:49;22.20;99.90
20341;DHT22;10328;50.042;8.238;2022-07-10T13:55:16;22.40;99.90
20341;DHT22;10328;50.042;8.238;2022-07-10T13:57:42;22.30;99.90
20341;DHT22;10328;50.042;8.238;2022-07-10T14:00:10;21.90;99.90
20341;DHT22;10328;50.042;8.238;2022-07-10T14:02:38;22.00;99.90
20341;DHT22;10328;50.042;8.238;2022-07-10T14:05:05;22.40;99.90
20341;DHT22;10328;50.042;8.238;2022-07-10T14:07:32;22.50;99.90
20341;DHT22;10328;50.042;8.238;2022-07-10T14:09:59;22.40;99.90
20341;DHT22;10328;50.042;8.238;2022-07-10T14:12:27;22.10;99.90
20341;DHT22;10328;50.042;8.238;2022-07-10T14:14:54;22.30;99.90
20341;DHT22;10328;50.042;8.238;2022-07-10T14:17:21;21.70;99.90
20341;DHT22;10328;50.042;8.238;2022-07-10T14:19:47;21.50;99.90
20341;DHT22;10328;50.042;8.238;2022-07-10T14:22:14;21.70;99.90
20341;DHT22;10328;50.042;8.238;2022-07-10T14:24:42;21.70;99.90
20341;DHT22;10328;50.042;8.238;2022-07-10T14:27:08;21.30;99.90
20341;DHT22;10328;50.042;8.238;2022-07-10T14:29:35;21.40;99.90
20341;DHT22;10328;50.042;8.238;2022-07-10T14:32:02;21.50;99.90
20341;DHT22;10328;50.042;8.238;2022-07-10T14:34:29;21.70;99.90
20341;DHT22;10328;50.042;8.238;2022-07-10T14:36:56;21.70;99.90
20341;DHT22;10328;50.042;8.238;2022-07-10T14:39:26;21.70;99.90
20341;DHT22;10328;50.042;8.238;2022-07-10T14:41:53;21.80;99.90
20341;DHT22;10328;50.042;8.238;2022-07-10T14:44:20;21.80;99.90
20341;DHT22;10328;50.042;8.238;2022-07-10T14:46:47;21.60;99.90
20341;DHT22;10328;50.042;8.238;2022-07-10T14:49:14;21.30;99.90
20341;DHT22;10328;50.042;8.238;2022-07-10T14:51:41;21.40;99.90
20341;DHT22;10328;50.042;8.238;2022-07-10T14:54:08;21.50;99.90
20341;DHT22;10328;50.042;8.238;2022-07-10T14:56:37;22.00;99.90
20341;DHT22;10328;50.042;8.238;2022-07-10T14:59:03;22.00;99.90
20341;DHT22;10328;50.042;8.238;2022-07-10T15:01:40;22.10;99.90
20341;DHT22;10328;50.042;8.238;2022-07-10T15:04:07;22.30;99.90
20341;DHT22;10328;50.042;8.238;2022-07-10T15:06:33;22.10;99.90
20341;DHT22;10328;50.042;8.238;2022-07-10T15:09:00;22.00;99.90
20341;DHT22;10328;50.042;8.238;2022-07-10T15:11:27;21.80;99.90
20341;DHT22;10328;50.042;8.238;2022-07-10T15:13:54;21.70;99.90
20341;DHT22;10328;50.042;8.238;2022-07-10T15:16:26;22.00;99.90
20341;DHT22;10328;50.042;8.238;2022-07-10T15:18:54;21.60;99.90
20341;DHT22;10328;50.042;8.238;2022-07-10T15:21:21;21.80;99.90
20341;DHT22;10328;50.042;8.238;2022-07-10T15:23:49;22.00;99.90
20341;DHT22;10328;50.042;8.238;2022-07-10T15:26:15;22.20;99.90
20341;DHT22;10328;50.042;8.238;2022-07-10T15:28:44;22.30;99.90
20341;DHT22;10328;50.042;8.238;2022-07-10T15:31:10;22.30;99.90
20341;DHT22;10328;50.042;8.238;2022-07-10T15:33:37;22.30;99.90
20341;DHT22;10328;50.042;8.238;2022-07-10T15:36:10;22.60;99.90
20341;DHT22;10328;50.042;8.238;2022-07-10T15:38:37;22.60;99.90
20341;DHT22;10328;50.042;8.238;2022-07-10T15:41:04;22.50;99.90
20341;DHT22;10328;50.042;8.238;2022-07-10T15:43:31;22.10;99.90
20341;DHT22;10328;50.042;8.238;2022-07-10T15:45:57;21.70;99.90
20341;DHT22;10328;50.042;8.238;2022-07-10T15:48:25;21.60;99.90
20341;DHT22;10328;50.042;8.238;2022-07-10T15:50:52;21.80;99.90
20341;DHT22;10328;50.042;8.238;2022-07-10T15:53:20;21.80;99.90
20341;DHT22;10328;50.042;8.238;2022-07-10T15:55:47;22.10;99.90
20341;DHT22;10328;50.042;8.238;2022-07-10T15:58:14;22.20;99.90
20341;DHT22;10328;50.042;8.238;2022-07-10T16:00:41;22.40;99.90
20341;DHT22;10328;50.042;8.238;2022-07-10T16:03:07;22.30;99.90
20341;DHT22;10328;50.042;8.238;2022-07-10T16:05:34;22.30;99.90
20341;DHT22;10328;50.042;8.238;2022-07-10T16:08:01;22.30;99.90
20341;DHT22;10328;50.042;8.238;2022-07-10T16:10:27;22.00;99.90
20341;DHT22;10328;50.042;8.238;2022-07-10T16:12:54;21.70;99.90
20341;DHT22;10328;50.042;8.238;2022-07-10T16:15:21;21.60;99.90
20341;DHT22;10328;50.042;8.238;2022-07-10T16:17:47;21.40;99.90